< Typhoon 200401 2004 Season Typhoon 200403 >
Typhoon 200402 (NIDA)
General InformationTrack Information on Google MapsDetailed Wind InformationAccess Analytics MapList of All Images || NewsDisaster Info.WeblogResourceGoogle EarthGE AnimationAtom FeedGeoJSON
Detalied Best Track (Time Zone = UTC)
Year Month Day Hour Lat. Long. Pressure (hPa) Wind (kt) Class Image Chart
2004 5 13 00 7.2 132.5 1004 0 2 Image Chart
2004 5 13 06 7.4 132.4 1002 0 2 Image Chart
2004 5 13 12 7.8 132.3 1004 0 2 Image Chart
2004 5 13 18 8.0 132.0 1000 0 2 Image Chart
2004 5 14 00 8.2 131.9 998 35 3 Image Chart
2004 5 14 06 8.5 131.5 990 40 3 Image Chart
2004 5 14 12 9.0 131.0 985 50 4 Image Chart
2004 5 14 18 9.2 130.5 985 50 4 Image Chart
2004 5 15 00 9.6 129.7 980 55 4 Image Chart
2004 5 15 06 9.9 129.1 975 60 4 Image Chart
2004 5 15 12 10.2 128.5 970 65 5 Image Chart
2004 5 15 18 10.7 127.9 955 75 5 Image Chart
2004 5 16 00 11.1 127.2 950 80 5 Image Chart
2004 5 16 06 11.9 126.4 945 90 5 Image Chart
2004 5 16 12 12.7 125.6 935 95 5 Image Chart
2004 5 16 18 13.5 124.8 935 95 5 Image Chart
2004 5 17 00 14.1 124.2 940 90 5 Image Chart
2004 5 17 06 14.7 123.9 940 90 5 Image Chart
2004 5 17 12 15.4 123.7 940 90 5 Image Chart
2004 5 17 18 16.2 123.5 940 90 5 Image Chart
2004 5 18 00 16.8 123.5 940 90 5 Image Chart
2004 5 18 06 17.5 123.7 940 90 5 Image Chart
2004 5 18 12 18.5 124.1 945 85 5 Image Chart
2004 5 18 18 19.3 124.5 945 85 5 Image Chart
2004 5 19 00 20.0 125.1 950 80 5 Image Chart
2004 5 19 06 21.2 126.5 950 80 5 Image Chart
2004 5 19 12 22.3 127.9 950 80 5 Image Chart
2004 5 19 15 23.2 128.8 950 80 5 Image Chart
2004 5 19 18 23.8 129.7 950 80 5 Image Chart
2004 5 19 21 24.4 130.5 950 80 5 Image Chart
2004 5 20 00 25.2 131.5 955 75 5 Image Chart
2004 5 20 03 26.1 132.8 955 75 5 Image Chart
2004 5 20 06 27.0 134.2 960 70 5 Image Chart
2004 5 20 09 27.9 135.6 960 70 5 Image Chart
2004 5 20 12 28.8 137.1 960 70 5 Image Chart
2004 5 20 15 29.9 138.4 965 70 5 Image Chart
2004 5 20 18 31.2 139.8 970 65 5 Image Chart
2004 5 20 21 32.4 141.0 975 60 4 Image Chart
2004 5 21 00 34.5 142.3 980 50 4 Image Chart
2004 5 21 03 36.1 144.1 980 50 4 Image Chart
2004 5 21 06 37.4 145.7 984 0 6 Image Chart
2004 5 21 12 38.7 147.0 986 0 6 Image Chart
2004 5 21 18 39.7 148.0 992 0 6 Image Chart
2004 5 22 00 40.6 148.5 996 0 6 Image Chart
2004 5 22 06 40.8 149.2 1000 0 6 Image Chart
2004 5 22 12 40.5 150.6 1004 0 6 Image Chart
2004 5 22 18 40.5 151.2 1008 0 6 Image Chart
Japan Meteorological Agency Best Track Data | Correction Date : 2006-01-18
< Typhoon 200401 2004 Season Typhoon 200403 >

Help